Time;durP1;ratioP1;P1;durP2;ratioP2;P2;SDS_P1;SDS_P2;PMS_P1;PMS_P2;Temp;Humidity;BMP_temperature;BMP_pressure;BME280_temperature;BME280_humidity;BME280_pressure;Samples;Min_cycle;Max_cycle;Signal;HPM_P1;HPM_P2
2021/05/09 00:00:27;;;;;;;2.08;0.63;;;13.30;99.90;;;;;;5023921;28;20515;-80
2021/05/09 00:02:54;;;;;;;5.10;0.80;;;13.30;99.90;;;;;;5025780;28;20061;-80
2021/05/09 00:05:19;;;;;;;3.47;0.70;;;13.20;99.90;;;;;;5010083;28;20029;-81
2021/05/09 00:07:45;;;;;;;2.35;0.60;;;13.10;99.90;;;;;;5025813;28;20049;-80
2021/05/09 00:10:12;;;;;;;2.95;0.80;;;13.10;99.90;;;;;;5040492;28;20052;-80
2021/05/09 00:12:38;;;;;;;2.03;0.70;;;13.10;99.90;;;;;;5024320;28;20089;-81
2021/05/09 00:15:06;;;;;;;2.95;0.60;;;13.00;99.90;;;;;;5021305;28;20052;-80
2021/05/09 00:17:32;;;;;;;2.38;0.90;;;13.10;99.90;;;;;;5010351;28;20029;-79
2021/05/09 00:19:58;;;;;;;4.15;0.70;;;13.10;99.90;;;;;;5021660;28;20029;-80
2021/05/09 00:22:23;;;;;;;2.92;0.82;;;13.00;99.90;;;;;;5044149;28;20048;-80
2021/05/09 00:24:49;;;;;;;1.85;0.80;;;13.00;99.90;;;;;;5020785;28;20025;-80
2021/05/09 00:27:14;;;;;;;2.88;0.70;;;12.90;99.90;;;;;;5019925;28;20037;-80
2021/05/09 00:29:40;;;;;;;2.88;0.85;;;12.90;99.90;;;;;;5026244;28;20197;-80
2021/05/09 00:32:06;;;;;;;4.18;1.00;;;12.90;99.90;;;;;;5026486;28;20088;-81
2021/05/09 00:34:31;;;;;;;2.05;0.90;;;12.80;99.90;;;;;;5025849;28;20053;-80
2021/05/09 00:36:57;;;;;;;2.25;0.70;;;12.80;99.90;;;;;;5019777;28;20030;-80
2021/05/09 00:39:22;;;;;;;2.00;0.60;;;12.80;99.90;;;;;;5018779;28;20026;-80
2021/05/09 00:41:48;;;;;;;3.45;0.90;;;12.80;99.90;;;;;;5031002;28;20489;-81
2021/05/09 00:44:14;;;;;;;2.30;0.70;;;12.70;99.90;;;;;;5030954;28;20026;-80
2021/05/09 00:46:40;;;;;;;2.55;1.17;;;12.60;99.90;;;;;;5011351;28;20025;-80
2021/05/09 00:49:05;;;;;;;2.40;0.80;;;12.60;99.90;;;;;;5028962;28;20496;-80
2021/05/09 00:51:31;;;;;;;2.97;0.90;;;12.50;99.90;;;;;;5045909;28;20029;-80
2021/05/09 00:53:59;;;;;;;3.25;0.75;;;12.50;99.90;;;;;;5028515;28;20088;-80
2021/05/09 00:56:26;;;;;;;1.50;0.70;;;12.40;99.90;;;;;;5030763;28;20109;-81
2021/05/09 00:58:54;;;;;;;1.85;0.70;;;12.30;99.90;;;;;;5047159;28;20041;-81
2021/05/09 01:01:23;;;;;;;3.63;1.00;;;12.40;99.90;;;;;;5028518;28;20026;-81
2021/05/09 01:03:52;;;;;;;3.70;1.70;;;12.30;99.90;;;;;;5009313;28;20025;-81
2021/05/09 01:06:19;;;;;;;2.63;0.90;;;12.20;99.90;;;;;;5047095;28;20026;-81
2021/05/09 01:08:47;;;;;;;2.63;0.68;;;12.20;99.90;;;;;;5030266;28;20029;-81
2021/05/09 01:11:13;;;;;;;2.17;0.90;;;12.20;99.90;;;;;;5023371;28;20029;-81
2021/05/09 01:13:39;;;;;;;3.47;0.82;;;12.10;99.90;;;;;;5016203;28;20038;-81
2021/05/09 01:16:05;;;;;;;2.25;0.70;;;12.10;99.90;;;;;;5046591;28;20022;-81
2021/05/09 01:18:31;;;;;;;1.85;0.70;;;12.00;99.90;;;;;;5047717;28;20025;-81
2021/05/09 01:20:58;;;;;;;2.20;0.95;;;12.00;99.90;;;;;;5030085;28;20473;-81
2021/05/09 01:23:24;;;;;;;2.17;0.88;;;12.00;99.90;;;;;;5035862;28;20073;-81
2021/05/09 01:25:49;;;;;;;2.47;0.75;;;12.00;99.90;;;;;;5030037;28;20180;-81
2021/05/09 01:28:15;;;;;;;2.17;0.75;;;12.00;99.90;;;;;;5019290;28;20025;-81
2021/05/09 01:30:41;;;;;;;3.72;0.73;;;11.90;99.90;;;;;;5029727;28;20045;-81
2021/05/09 01:33:07;;;;;;;2.58;1.08;;;11.90;99.90;;;;;;5019141;28;20041;-81
2021/05/09 01:35:34;;;;;;;2.00;0.80;;;11.90;99.90;;;;;;5047563;28;20029;-80
2021/05/09 01:38:01;;;;;;;3.38;0.82;;;11.80;99.90;;;;;;5043575;28;20510;-80
2021/05/09 01:40:26;;;;;;;2.35;1.45;;;11.80;99.90;;;;;;5029849;28;20026;-81
2021/05/09 01:42:52;;;;;;;2.95;0.82;;;11.80;99.90;;;;;;5029279;28;20029;-81
2021/05/09 01:45:20;;;;;;;2.97;0.80;;;11.80;99.90;;;;;;5022052;28;20026;-81
2021/05/09 01:47:46;;;;;;;4.25;1.00;;;11.80;99.90;;;;;;5044125;28;20026;-81
2021/05/09 01:50:17;;;;;;;2.03;1.00;;;11.80;99.90;;;;;;5038056;28;20053;-80
2021/05/09 01:52:43;;;;;;;2.65;1.10;;;11.80;99.90;;;;;;4999922;28;20025;-80
2021/05/09 01:55:18;;;;;;;1.98;0.80;;;11.80;99.90;;;;;;5047316;28;20049;-82
2021/05/09 01:57:50;;;;;;;3.15;0.95;;;11.80;99.90;;;;;;5029247;28;20082;-80
2021/05/09 02:00:24;;;;;;;2.38;0.85;;;11.70;99.90;;;;;;5040138;28;20029;-80
2021/05/09 02:02:56;;;;;;;2.72;0.95;;;11.70;99.90;;;;;;5029406;28;20109;-81
2021/05/09 02:05:27;;;;;;;2.53;0.88;;;11.70;99.90;;;;;;5018479;28;20033;-80
2021/05/09 02:07:53;;;;;;;1.95;0.80;;;11.70;99.90;;;;;;5023762;28;20069;-81
2021/05/09 02:10:20;;;;;;;2.08;0.70;;;11.70;99.90;;;;;;5018887;28;20026;-81
2021/05/09 02:12:48;;;;;;;2.53;1.15;;;11.70;99.90;;;;;;5038985;28;20431;-80
2021/05/09 02:15:27;;;;;;;3.63;1.05;;;11.80;99.90;;;;;;5027251;28;20037;-80
2021/05/09 02:17:53;;;;;;;1.88;0.68;;;11.90;99.90;;;;;;5028659;28;20389;-80
2021/05/09 02:20:23;;;;;;;3.65;1.05;;;11.80;99.90;;;;;;5027766;28;20034;-81
2021/05/09 02:22:51;;;;;;;2.17;1.35;;;11.80;99.90;;;;;;5045439;28;20033;-81
2021/05/09 02:25:17;;;;;;;4.43;0.80;;;11.80;99.90;;;;;;5028305;28;20421;-81
2021/05/09 02:27:43;;;;;;;2.67;0.90;;;11.70;99.90;;;;;;5042196;28;20026;-80
2021/05/09 02:30:10;;;;;;;3.63;1.00;;;11.70;99.90;;;;;;5002020;28;20033;-80
2021/05/09 02:32:35;;;;;;;4.70;1.05;;;11.70;99.90;;;;;;5019782;28;20026;-80
2021/05/09 02:35:01;;;;;;;2.88;1.20;;;11.70;99.90;;;;;;5026816;28;20044;-80
2021/05/09 02:37:27;;;;;;;3.90;1.02;;;11.70;99.90;;;;;;5028540;28;20385;-80
2021/05/09 02:39:53;;;;;;;4.93;1.33;;;11.80;99.90;;;;;;5028328;28;20033;-80
2021/05/09 02:42:19;;;;;;;2.70;1.40;;;11.80;99.90;;;;;;5039056;28;20033;-81
2021/05/09 02:44:45;;;;;;;4.70;1.77;;;11.80;99.90;;;;;;5016510;28;20397;-80
2021/05/09 02:47:27;;;;;;;3.90;1.48;;;11.70;99.90;;;;;;5044537;28;20022;-80
2021/05/09 02:49:58;;;;;;;3.72;1.25;;;11.70;99.90;;;;;;5025022;28;20034;-80
2021/05/09 02:52:24;;;;;;;2.47;0.80;;;11.60;99.90;;;;;;5009416;28;20021;-81
2021/05/09 02:54:50;;;;;;;2.42;0.80;;;11.60;99.90;;;;;;5012138;28;20068;-80
2021/05/09 02:57:16;;;;;;;4.82;1.35;;;11.50;99.90;;;;;;5036700;28;20025;-81
2021/05/09 02:59:42;;;;;;;3.28;1.20;;;11.60;99.90;;;;;;5014285;28;20038;-80
2021/05/09 03:02:08;;;;;;;3.22;1.08;;;11.60;99.90;;;;;;5014584;28;20044;-80
2021/05/09 03:04:33;;;;;;;3.25;1.27;;;11.50;99.90;;;;;;5027938;28;20036;-80
2021/05/09 03:06:59;;;;;;;2.08;0.80;;;11.50;99.90;;;;;;5034971;23;20068;-80
2021/05/09 03:09:25;;;;;;;3.33;1.17;;;11.50;99.90;;;;;;5028471;28;20033;-80
2021/05/09 03:11:51;;;;;;;3.78;1.38;;;11.40;99.90;;;;;;5028510;28;20060;-80
2021/05/09 03:14:17;;;;;;;3.20;1.50;;;11.40;99.90;;;;;;5011877;28;20037;-79
2021/05/09 03:16:43;;;;;;;3.25;1.05;;;11.30;99.90;;;;;;5028058;28;20029;-80
2021/05/09 03:19:09;;;;;;;4.18;1.38;;;11.30;99.90;;;;;;5028118;28;20087;-80
2021/05/09 03:21:34;;;;;;;2.95;1.00;;;11.30;99.90;;;;;;5028244;28;20489;-81
2021/05/09 03:24:00;;;;;;;5.75;1.17;;;11.30;99.90;;;;;;5011661;28;20083;-80
2021/05/09 03:26:26;;;;;;;2.85;1.48;;;11.20;99.90;;;;;;5028220;28;20100;-80
2021/05/09 03:28:51;;;;;;;3.13;1.27;;;11.20;99.90;;;;;;5027885;28;20029;-81
2021/05/09 03:31:17;;;;;;;2.85;1.25;;;11.20;99.90;;;;;;5011918;28;20018;-80
2021/05/09 03:33:43;;;;;;;3.95;1.63;;;11.10;99.90;;;;;;5011470;28;20501;-80
2021/05/09 03:36:08;;;;;;;3.85;1.48;;;11.10;99.90;;;;;;5012036;28;20033;-79
2021/05/09 03:38:34;;;;;;;3.47;1.40;;;11.10;99.90;;;;;;5013148;28;20040;-80
2021/05/09 03:40:59;;;;;;;4.65;1.52;;;11.10;99.90;;;;;;5011211;28;20025;-80
2021/05/09 03:43:25;;;;;;;7.22;1.55;;;11.10;99.90;;;;;;5045347;28;20021;-80
2021/05/09 03:45:51;;;;;;;3.78;1.40;;;11.10;99.90;;;;;;5027509;28;20048;-80
2021/05/09 03:48:16;;;;;;;3.03;1.10;;;11.00;99.90;;;;;;5027295;28;20026;-80
2021/05/09 03:50:42;;;;;;;4.07;1.20;;;11.00;99.90;;;;;;5010915;28;20037;-80
2021/05/09 03:53:07;;;;;;;2.67;1.02;;;11.00;99.90;;;;;;5011121;28;20479;-80
2021/05/09 03:55:33;;;;;;;2.95;1.00;;;11.10;99.90;;;;;;5027360;28;20405;-80
2021/05/09 03:57:59;;;;;;;3.67;1.15;;;11.00;99.90;;;;;;5010927;28;20031;-81
2021/05/09 04:00:25;;;;;;;2.25;1.20;;;11.00;99.90;;;;;;5048399;28;20033;-80
2021/05/09 04:02:53;;;;;;;3.03;0.95;;;11.00;99.90;;;;;;5013245;28;20033;-80
2021/05/09 04:05:19;;;;;;;2.53;1.30;;;11.00;99.90;;;;;;5010089;28;20056;-80
2021/05/09 04:07:44;;;;;;;3.65;1.70;;;11.00;99.90;;;;;;5029169;28;20041;-80
2021/05/09 04:10:11;;;;;;;2.40;1.38;;;11.10;99.90;;;;;;5046962;28;20060;-80
2021/05/09 04:12:36;;;;;;;4.80;1.40;;;11.10;99.90;;;;;;5044175;28;20092;-80
2021/05/09 04:15:02;;;;;;;2.85;1.17;;;11.10;99.90;;;;;;5009338;28;20053;-79
2021/05/09 04:17:28;;;;;;;3.35;0.90;;;11.10;99.90;;;;;;5044110;28;20085;-80
2021/05/09 04:19:54;;;;;;;2.85;1.10;;;11.10;99.90;;;;;;5010021;28;20036;-80
2021/05/09 04:22:19;;;;;;;3.22;1.45;;;11.10;99.90;;;;;;5044226;28;20026;-80
2021/05/09 04:24:45;;;;;;;2.33;1.05;;;11.10;99.90;;;;;;5026481;28;20033;-80
2021/05/09 04:27:11;;;;;;;2.58;1.20;;;11.20;99.90;;;;;;5026108;28;20109;-80
2021/05/09 04:29:36;;;;;;;2.67;1.10;;;11.20;99.90;;;;;;5010611;28;20018;-80
2021/05/09 04:32:02;;;;;;;1.92;0.90;;;11.30;99.90;;;;;;5010149;28;20100;-80
2021/05/09 04:34:28;;;;;;;2.10;0.73;;;11.30;99.90;;;;;;5009777;28;20060;-80
2021/05/09 04:36:54;;;;;;;5.18;1.20;;;11.40;99.90;;;;;;5009657;28;20033;-80
2021/05/09 04:39:19;;;;;;;2.75;0.88;;;11.50;99.90;;;;;;5026371;28;20469;-80
2021/05/09 04:41:45;;;;;;;2.42;0.85;;;11.50;99.90;;;;;;5026179;28;20385;-80
2021/05/09 04:44:10;;;;;;;3.40;0.70;;;11.60;99.90;;;;;;5009991;28;20389;-81
2021/05/09 04:46:36;;;;;;;4.03;1.35;;;11.60;99.90;;;;;;5010254;28;20030;-81
2021/05/09 04:49:02;;;;;;;3.28;1.10;;;11.70;99.90;;;;;;5012740;28;20022;-81
2021/05/09 04:51:28;;;;;;;2.00;0.90;;;11.80;99.90;;;;;;5023636;28;20056;-84
2021/05/09 04:53:53;;;;;;;2.25;1.17;;;11.80;99.90;;;;;;5025639;28;20524;-81
2021/05/09 04:56:19;;;;;;;2.17;0.90;;;11.90;99.90;;;;;;5009536;28;20048;-81
2021/05/09 04:58:45;;;;;;;1.88;0.80;;;11.90;99.90;;;;;;5009542;28;20484;-83
2021/05/09 05:01:13;;;;;;;2.90;0.90;;;11.90;99.90;;;;;;5043613;28;20036;-82
2021/05/09 05:03:39;;;;;;;1.48;0.85;;;11.80;99.90;;;;;;5042487;28;20045;-81
2021/05/09 05:06:05;;;;;;;3.20;1.15;;;11.80;99.90;;;;;;5024967;28;20051;-81
2021/05/09 05:08:33;;;;;;;1.95;0.98;;;11.80;99.90;;;;;;5025909;28;20033;-80
2021/05/09 05:11:00;;;;;;;5.45;1.15;;;11.80;99.90;;;;;;5028707;28;20029;-81
2021/05/09 05:13:28;;;;;;;5.05;1.25;;;11.90;99.90;;;;;;5026032;28;20044;-81
2021/05/09 05:15:55;;;;;;;3.05;1.10;;;12.00;99.90;;;;;;5009481;28;20037;-81
2021/05/09 05:18:22;;;;;;;3.55;1.00;;;12.10;99.90;;;;;;5042245;28;20497;-80
2021/05/09 05:20:49;;;;;;;1.50;0.70;;;12.20;99.90;;;;;;5008930;28;20068;-80
2021/05/09 05:23:15;;;;;;;1.88;0.98;;;12.20;99.90;;;;;;5009641;28;20089;-81
2021/05/09 05:25:42;;;;;;;2.03;0.90;;;12.30;99.90;;;;;;5011283;28;20493;-80
2021/05/09 05:28:08;;;;;;;2.88;0.93;;;12.50;99.90;;;;;;5045767;28;20104;-82
2021/05/09 05:30:34;;;;;;;3.45;0.90;;;12.60;99.90;;;;;;5045622;28;20025;-81
2021/05/09 05:33:00;;;;;;;2.72;1.00;;;12.60;99.90;;;;;;5029119;28;20075;-81
2021/05/09 05:35:26;;;;;;;2.17;1.00;;;12.70;99.90;;;;;;5028826;28;20021;-81
2021/05/09 05:37:56;;;;;;;1.77;0.93;;;12.80;99.90;;;;;;5028779;28;20172;-81
2021/05/09 05:40:25;;;;;;;2.50;0.80;;;13.00;99.90;;;;;;5012678;28;20049;-81
2021/05/09 05:42:52;;;;;;;2.47;0.80;;;13.10;99.90;;;;;;5012731;28;20063;-81
2021/05/09 05:45:18;;;;;;;1.98;0.80;;;13.30;99.90;;;;;;5012653;28;20036;-82
2021/05/09 05:47:44;;;;;;;2.25;0.70;;;13.40;99.90;;;;;;5015005;28;20048;-81
2021/05/09 05:50:10;;;;;;;4.50;0.85;;;13.50;99.90;;;;;;5029080;28;20034;-81
2021/05/09 05:52:36;;;;;;;2.72;1.02;;;13.60;99.90;;;;;;5012071;28;20377;-81
2021/05/09 05:55:03;;;;;;;2.60;1.10;;;13.70;99.90;;;;;;5012485;28;20033;-80
2021/05/09 05:57:29;;;;;;;2.30;1.30;;;13.70;99.90;;;;;;5025665;28;20025;-81
2021/05/09 05:59:54;;;;;;;2.50;0.80;;;13.70;99.90;;;;;;5028564;28;20397;-81
2021/05/09 06:02:21;;;;;;;3.13;1.05;;;13.70;99.90;;;;;;5012312;28;20114;-81
2021/05/09 06:05:07;;;;;;;2.80;0.80;;;13.70;99.90;;;;;;5012170;28;20036;-82
2021/05/09 06:07:33;;;;;;;2.03;0.77;;;13.70;99.90;;;;;;4929788;29;20043;-81
2021/05/09 06:09:58;;;;;;;3.97;0.80;;;13.90;99.90;;;;;;4933084;29;20127;-81
2021/05/09 06:12:24;;;;;;;2.88;0.90;;;13.90;99.90;;;;;;4930239;29;20055;-81
2021/05/09 06:14:50;;;;;;;1.58;0.65;;;14.00;99.90;;;;;;4930237;29;20043;-82
2021/05/09 06:17:18;;;;;;;1.33;0.60;;;14.20;99.90;;;;;;4929944;29;20023;-83
2021/05/09 06:19:44;;;;;;;2.05;0.70;;;14.50;99.90;;;;;;4914076;29;20058;-83
2021/05/09 06:22:09;;;;;;;1.98;0.80;;;14.70;99.90;;;;;;4929801;29;20540;-82
2021/05/09 06:24:35;;;;;;;2.05;0.80;;;14.80;99.90;;;;;;4914697;29;20031;-82
2021/05/09 06:27:01;;;;;;;2.08;0.50;;;15.10;99.90;;;;;;4930404;29;20039;-83
2021/05/09 06:29:26;;;;;;;4.15;0.95;;;15.20;99.90;;;;;;4933014;29;20024;-82
2021/05/09 06:31:52;;;;;;;1.52;0.60;;;15.10;99.90;;;;;;4915156;29;20428;-82
2021/05/09 06:34:18;;;;;;;2.40;0.52;;;15.00;99.90;;;;;;4957746;29;20046;-83
2021/05/09 06:36:43;;;;;;;2.40;0.98;;;14.90;99.90;;;;;;4929174;29;20127;-83
2021/05/09 06:39:09;;;;;;;1.38;0.50;;;14.80;99.90;;;;;;4929139;29;20071;-84
2021/05/09 06:41:35;;;;;;;1.75;0.60;;;14.90;99.90;;;;;;4932402;29;20020;-82
2021/05/09 06:44:05;;;;;;;1.95;0.50;;;15.00;99.90;;;;;;4975650;28;20497;-82
2021/05/09 06:46:30;;;;;;;2.28;0.60;;;15.20;99.90;;;;;;5024670;28;20103;-82
2021/05/09 06:48:56;;;;;;;1.27;0.47;;;15.50;99.90;;;;;;5012776;28;20033;-82
2021/05/09 06:51:22;;;;;;;1.73;0.40;;;15.70;99.90;;;;;;5011161;28;20060;-81
2021/05/09 06:53:47;;;;;;;3.15;0.40;;;16.00;99.90;;;;;;5011356;28;20049;-82
2021/05/09 06:56:13;;;;;;;1.30;0.50;;;16.00;99.90;;;;;;5028286;28;20049;-82
2021/05/09 06:58:40;;;;;;;1.73;0.50;;;16.10;99.90;;;;;;5043122;28;20025;-82
2021/05/09 07:01:06;;;;;;;2.53;0.50;;;16.30;99.90;;;;;;5027150;28;20029;-82
2021/05/09 07:03:32;;;;;;;1.33;0.30;;;16.50;99.90;;;;;;5027544;28;20068;-82
2021/05/09 07:05:58;;;;;;;1.40;0.40;;;16.80;99.90;;;;;;5026769;28;20032;-83
2021/05/09 07:08:24;;;;;;;0.80;0.40;;;17.00;99.90;;;;;;5027441;28;20029;-82
2021/05/09 07:10:50;;;;;;;1.02;0.40;;;17.20;99.90;;;;;;5027183;28;20028;-82
2021/05/09 07:13:15;;;;;;;1.38;0.50;;;17.30;99.90;;;;;;5010608;28;20037;-82
2021/05/09 07:15:42;;;;;;;2.40;0.50;;;17.60;99.90;;;;;;5026798;28;20063;-83
2021/05/09 07:20:40;;;;;;;0.80;0.40;;;17.90;99.90;;;;;;5028385;28;20021;-84
2021/05/09 07:23:06;;;;;;;1.58;0.52;;;18.10;99.90;;;;;;5011744;28;20463;-83
2021/05/09 07:25:33;;;;;;;1.63;0.50;;;18.30;99.90;;;;;;5028301;28;20057;-82
2021/05/09 07:28:09;;;;;;;1.88;0.40;;;18.40;99.90;;;;;;5026509;28;20033;-83
2021/05/09 07:30:36;;;;;;;0.90;0.40;;;18.60;99.90;;;;;;4999735;28;20374;-83
2021/05/09 07:33:02;;;;;;;0.98;0.40;;;18.70;99.90;;;;;;5025622;28;20484;-83
2021/05/09 07:35:28;;;;;;;1.45;0.40;;;18.70;99.90;;;;;;5024650;28;20029;-83
2021/05/09 07:37:53;;;;;;;1.10;0.30;;;18.70;99.90;;;;;;5028193;28;20029;-83
2021/05/09 07:40:23;;;;;;;0.98;0.40;;;19.10;99.90;;;;;;5010028;28;20051;-83
2021/05/09 07:42:49;;;;;;;1.48;0.30;;;19.60;99.90;;;;;;5026837;28;20064;-83
2021/05/09 07:45:17;;;;;;;1.48;0.40;;;19.90;99.90;;;;;;5010182;28;20030;-83
2021/05/09 07:47:44;;;;;;;0.95;0.25;;;20.00;99.90;;;;;;5026042;28;20049;-83
2021/05/09 07:50:11;;;;;;;0.70;0.30;;;20.20;99.90;;;;;;5009532;28;20029;-84
2021/05/09 07:52:36;;;;;;;0.95;0.30;;;20.20;99.90;;;;;;5009124;28;20085;-83
2021/05/09 07:55:04;;;;;;;1.40;0.65;;;20.00;99.90;;;;;;5009446;28;20084;-83
2021/05/09 07:57:29;;;;;;;0.95;0.25;;;19.80;99.90;;;;;;5047548;28;20022;-83
2021/05/09 07:59:55;;;;;;;1.35;0.30;;;19.90;99.90;;;;;;5025105;28;20026;-83
2021/05/09 08:02:24;;;;;;;0.85;0.30;;;20.20;99.90;;;;;;5024185;28;20026;-83
2021/05/09 08:05:11;;;;;;;0.88;0.30;;;19.90;99.90;;;;;;5012060;28;20091;-83
2021/05/09 08:07:56;;;;;;;1.13;0.40;;;19.60;99.90;;;;;;4987809;28;20042;-83
2021/05/09 08:10:26;;;;;;;1.20;0.30;;;19.70;99.90;;;;;;5004162;28;20049;-83
2021/05/09 08:12:54;;;;;;;1.10;0.30;;;19.60;99.90;;;;;;4985386;28;20038;-83
2021/05/09 08:15:23;;;;;;;0.50;0.20;;;19.50;99.90;;;;;;4972457;28;20038;-83
2021/05/09 08:17:49;;;;;;;0.63;0.20;;;19.60;99.90;;;;;;4981295;28;20035;-83
2021/05/09 08:20:16;;;;;;;0.80;0.30;;;19.50;99.90;;;;;;4985559;28;20070;-82
2021/05/09 08:22:44;;;;;;;0.98;0.20;;;19.80;99.90;;;;;;5004987;28;20041;-82
2021/05/09 08:25:10;;;;;;;1.20;0.40;;;20.30;99.90;;;;;;4975406;28;20084;-82
2021/05/09 08:27:36;;;;;;;2.70;0.40;;;20.70;99.90;;;;;;5010161;28;20030;-83
2021/05/09 08:30:03;;;;;;;1.98;0.30;;;21.00;99.90;;;;;;4991889;28;20018;-83
2021/05/09 08:32:29;;;;;;;0.98;0.30;;;21.30;99.90;;;;;;5007792;28;20129;-83
2021/05/09 08:34:56;;;;;;;0.75;0.30;;;21.20;99.90;;;;;;4991911;28;20039;-83
2021/05/09 08:37:22;;;;;;;1.48;0.30;;;21.60;99.90;;;;;;5005791;28;20041;-85
2021/05/09 08:39:48;;;;;;;1.73;0.30;;;21.40;99.90;;;;;;4974000;28;20441;-85
2021/05/09 08:42:17;;;;;;;0.93;0.30;;;21.70;99.90;;;;;;4991647;28;20110;-82
2021/05/09 08:44:47;;;;;;;0.55;0.20;;;21.90;99.90;;;;;;5001451;28;20375;-83
2021/05/09 08:47:21;;;;;;;0.90;0.25;;;22.20;99.90;;;;;;5021542;28;20081;-82
2021/05/09 08:49:50;;;;;;;1.33;0.30;;;22.30;99.90;;;;;;4999245;28;20105;-82
2021/05/09 08:52:20;;;;;;;1.52;0.30;;;22.40;99.90;;;;;;4986100;28;20033;-82
2021/05/09 08:54:47;;;;;;;1.98;0.30;;;22.40;99.90;;;;;;5018187;28;20445;-83
2021/05/09 08:57:14;;;;;;;0.60;0.30;;;22.40;99.90;;;;;;5000147;28;20046;-83
2021/05/09 08:59:40;;;;;;;0.80;0.30;;;22.50;99.90;;;;;;5005663;28;20034;-83
2021/05/09 09:02:06;;;;;;;1.50;0.30;;;22.60;99.90;;;;;;5000824;28;20041;-83
2021/05/09 09:04:46;;;;;;;1.27;0.32;;;23.00;99.90;;;;;;5010070;28;20049;-83
2021/05/09 09:07:12;;;;;;;;;;;22.90;99.90;;;;;;5020156;28;20441;-83
2021/05/09 09:09:43;;;;;;;1.00;0.40;;;23.20;99.90;;;;;;5030200;28;19920;-83
2021/05/09 09:12:10;;;;;;;1.08;0.30;;;23.20;99.90;;;;;;5027286;28;20037;-83
2021/05/09 09:14:51;;;;;;;1.35;0.45;;;23.40;99.90;;;;;;5013212;28;20029;-83
2021/05/09 09:17:17;;;;;;;1.02;0.30;;;23.30;99.90;;;;;;5012799;28;20461;-83
2021/05/09 09:20:18;;;;;;;1.88;0.30;;;23.50;99.90;;;;;;5026955;28;20029;-83
2021/05/09 09:22:57;;;;;;;1.00;0.30;;;23.40;99.90;;;;;;5043614;28;20025;-81
2021/05/09 09:25:32;;;;;;;2.72;0.30;;;23.60;99.90;;;;;;5010809;28;20124;-83
2021/05/09 09:27:59;;;;;;;1.40;0.30;;;24.00;99.90;;;;;;5024707;28;20469;-82
2021/05/09 09:30:28;;;;;;;0.93;0.30;;;24.20;99.90;;;;;;5026736;28;20120;-82
2021/05/09 09:33:17;;;;;;;1.55;0.30;;;24.30;99.90;;;;;;5031681;28;20030;-82
2021/05/09 09:35:44;;;;;;;1.30;0.23;;;24.40;99.90;;;;;;5013077;28;20041;-83
2021/05/09 09:38:24;;;;;;;1.75;0.30;;;24.20;99.90;;;;;;5025378;28;20089;-83
2021/05/09 09:41:06;;;;;;;;;;;24.50;99.90;;;;;;5037713;28;20030;-83
2021/05/09 09:43:31;;;;;;;1.05;0.30;;;24.50;99.90;;;;;;5027862;28;19910;-83
2021/05/09 09:45:57;;;;;;;1.15;0.30;;;24.40;99.90;;;;;;5028826;28;20056;-82
2021/05/09 09:48:40;;;;;;;0.90;0.30;;;24.40;99.90;;;;;;5047342;28;20021;-83
2021/05/09 09:51:08;;;;;;;0.85;0.35;;;24.50;99.90;;;;;;5011032;28;20079;-84
2021/05/09 09:53:42;;;;;;;0.68;0.20;;;24.80;99.90;;;;;;5012206;28;20075;-82
2021/05/09 09:56:15;;;;;;;1.38;0.20;;;24.70;99.90;;;;;;5010637;28;20041;-83
2021/05/09 09:59:05;;;;;;;0.85;0.20;;;24.20;99.90;;;;;;5009425;28;20467;-83
2021/05/09 10:01:36;;;;;;;1.10;0.20;;;24.00;99.90;;;;;;5012670;28;20041;-82
2021/05/09 10:04:07;;;;;;;2.08;0.60;;;24.00;99.90;;;;;;5029525;28;20039;-83
2021/05/09 10:06:34;;;;;;;0.63;0.25;;;23.90;99.90;;;;;;5028691;28;20045;-82
2021/05/09 10:09:01;;;;;;;0.80;0.20;;;24.30;99.90;;;;;;5010143;28;20033;-82
2021/05/09 10:11:29;;;;;;;2.03;0.30;;;24.70;99.90;;;;;;5008924;28;20077;-85
2021/05/09 10:13:56;;;;;;;0.70;0.30;;;24.90;99.90;;;;;;5012137;28;20072;-83
2021/05/09 10:16:23;;;;;;;1.17;0.30;;;25.10;99.90;;;;;;5012556;28;20038;-84
2021/05/09 10:18:53;;;;;;;0.60;0.20;;;25.30;99.90;;;;;;5023917;28;20376;-84
2021/05/09 10:21:32;;;;;;;2.47;0.30;;;25.00;99.90;;;;;;5026752;28;20029;-85
2021/05/09 10:24:24;;;;;;;0.85;0.30;;;25.60;99.90;;;;;;5007462;28;20193;-83
2021/05/09 10:27:04;;;;;;;1.25;0.30;;;24.50;99.90;;;;;;5024182;28;20059;-84
2021/05/09 10:29:37;;;;;;;1.77;0.30;;;24.00;99.90;;;;;;5026783;28;20456;-84
2021/05/09 10:32:19;;;;;;;1.75;0.30;;;24.00;99.90;;;;;;5005741;28;20053;-84
2021/05/09 10:35:06;;;;;;;1.33;0.30;;;24.20;99.90;;;;;;5023127;28;20041;-85
2021/05/09 10:38:08;;;;;;;0.80;0.30;;;23.40;99.90;;;;;;5026011;28;20053;-85
2021/05/09 10:40:35;;;;;;;2.20;0.50;;;23.60;99.90;;;;;;5011563;28;20031;-84
2021/05/09 10:43:01;;;;;;;0.57;0.20;;;24.10;99.90;;;;;;5043142;28;20028;-80
2021/05/09 10:45:34;;;;;;;0.73;0.35;;;24.90;99.90;;;;;;5011844;28;20029;-80
2021/05/09 10:50:55;;;;;;;0.55;0.20;;;25.60;99.90;;;;;;5028096;28;20038;-80
2021/05/09 10:53:33;;;;;;;1.02;0.20;;;25.10;99.90;;;;;;5044308;28;20119;-80
2021/05/09 10:56:03;;;;;;;2.35;0.30;;;24.50;99.90;;;;;;5011394;28;20052;-81
2021/05/09 10:58:50;;;;;;;1.05;0.30;;;23.90;99.90;;;;;;5011456;28;20022;-82
2021/05/09 11:01:32;;;;;;;1.17;0.40;;;23.80;99.90;;;;;;5027949;28;20180;-81
2021/05/09 11:03:58;;;;;;;2.88;0.40;;;23.90;99.90;;;;;;5011370;28;20030;-81
2021/05/09 11:06:27;;;;;;;2.33;0.30;;;23.70;99.90;;;;;;5026851;28;20044;-79
2021/05/09 11:08:56;;;;;;;1.90;0.35;;;23.60;99.90;;;;;;5027080;28;20044;-80
2021/05/09 11:11:27;;;;;;;2.33;0.30;;;23.40;99.90;;;;;;5043194;28;20026;-80
2021/05/09 11:14:00;;;;;;;2.58;0.80;;;23.20;99.90;;;;;;5030187;28;20311;-80
2021/05/09 11:16:36;;;;;;;1.17;0.30;;;23.00;99.90;;;;;;5043752;28;20025;-78
2021/05/09 11:19:05;;;;;;;0.45;0.20;;;22.90;99.90;;;;;;5027667;28;20045;-81
2021/05/09 11:21:33;;;;;;;0.85;0.30;;;22.90;99.90;;;;;;5027453;28;20040;-81
2021/05/09 11:24:01;;;;;;;0.52;0.20;;;22.90;99.90;;;;;;5045076;28;20094;-80
2021/05/09 11:26:29;;;;;;;2.22;0.32;;;22.70;99.90;;;;;;5010894;28;20097;-79
2021/05/09 11:29:33;;;;;;;1.92;0.30;;;22.70;99.90;;;;;;5012838;28;20049;-79
2021/05/09 11:32:06;;;;;;;1.02;0.50;;;22.50;99.90;;;;;;4986982;28;20049;-79
2021/05/09 11:34:32;;;;;;;1.52;0.30;;;22.50;99.90;;;;;;4985245;28;20074;-80
2021/05/09 11:36:59;;;;;;;1.85;0.30;;;22.40;99.90;;;;;;4989042;28;20088;-80
2021/05/09 11:39:30;;;;;;;1.08;0.30;;;22.40;99.90;;;;;;4986856;28;20026;-80
2021/05/09 11:41:57;;;;;;;1.20;0.30;;;22.80;99.90;;;;;;4986756;28;20035;-80
2021/05/09 11:44:40;;;;;;;1.40;0.30;;;23.00;99.90;;;;;;4986448;28;20065;-80
2021/05/09 11:47:26;;;;;;;1.10;0.30;;;23.00;99.90;;;;;;5002703;28;20510;-79
2021/05/09 11:50:01;;;;;;;1.55;0.30;;;23.00;99.90;;;;;;5002762;28;20061;-79
2021/05/09 11:52:35;;;;;;;1.67;0.30;;;22.90;99.90;;;;;;5002740;28;20034;-79
2021/05/09 11:55:02;;;;;;;1.50;0.30;;;23.00;99.90;;;;;;4986388;28;20533;-81
2021/05/09 11:57:30;;;;;;;1.10;0.30;;;22.90;99.90;;;;;;4985990;28;20065;-79
2021/05/09 11:59:59;;;;;;;1.20;0.30;;;22.80;99.90;;;;;;5002434;28;20034;-79
2021/05/09 12:02:34;;;;;;;1.30;0.30;;;22.80;99.90;;;;;;4999416;28;20474;-80
2021/05/09 12:05:03;;;;;;;1.08;0.35;;;22.70;99.90;;;;;;5010245;28;20064;-80
2021/05/09 12:07:31;;;;;;;1.23;0.30;;;22.80;99.90;;;;;;5009842;28;20084;-80
2021/05/09 12:10:24;;;;;;;1.30;0.30;;;22.80;99.90;;;;;;5026690;28;20033;-80
2021/05/09 12:13:07;;;;;;;1.90;0.60;;;22.70;99.90;;;;;;5019182;28;20038;-86
2021/05/09 12:15:35;;;;;;;0.98;0.40;;;22.80;99.90;;;;;;4987031;28;20050;-84
2021/05/09 12:18:02;;;;;;;1.00;0.40;;;22.60;99.90;;;;;;5009915;28;20032;-83
2021/05/09 12:21:05;;;;;;;2.10;0.40;;;22.60;99.90;;;;;;4995929;28;20077;-84
2021/05/09 12:23:30;;;;;;;1.10;0.40;;;22.70;99.90;;;;;;5024813;28;20040;-84
2021/05/09 12:25:56;;;;;;;0.95;0.30;;;22.70;99.90;;;;;;5007334;28;20033;-84
2021/05/09 12:28:29;;;;;;;0.60;0.30;;;22.80;99.90;;;;;;5026495;28;20477;-84
2021/05/09 12:31:06;;;;;;;0.65;0.30;;;22.90;99.90;;;;;;5026751;28;20045;-84
2021/05/09 12:33:32;;;;;;;2.00;0.43;;;22.80;99.90;;;;;;5010269;28;20036;-84
2021/05/09 12:35:59;;;;;;;1.00;0.40;;;22.90;99.90;;;;;;5030669;28;20040;-83
2021/05/09 12:38:30;;;;;;;1.67;0.40;;;23.00;99.90;;;;;;5031441;28;20032;-84
2021/05/09 12:41:08;;;;;;;1.35;0.38;;;23.10;99.90;;;;;;5030892;28;20393;-84
2021/05/09 12:43:51;;;;;;;1.00;0.30;;;23.30;99.90;;;;;;5048366;28;20101;-84
2021/05/09 12:46:40;;;;;;;2.60;0.40;;;23.30;99.90;;;;;;5029185;28;20037;-85
2021/05/09 12:49:16;;;;;;;1.20;0.30;;;23.30;99.90;;;;;;5014050;28;20511;-84
2021/05/09 12:51:50;;;;;;;1.40;0.40;;;23.30;99.90;;;;;;5031165;28;20030;-84
2021/05/09 12:54:36;;;;;;;0.60;0.30;;;23.40;99.90;;;;;;5030376;28;20037;-85
2021/05/09 12:57:20;;;;;;;1.15;0.30;;;23.40;99.90;;;;;;5029177;28;20025;-83
2021/05/09 13:00:09;;;;;;;1.60;0.40;;;23.50;99.90;;;;;;5027615;28;20034;-84
2021/05/09 13:02:48;;;;;;;5.72;0.50;;;23.80;99.90;;;;;;5013875;28;20037;-83